sensor_id;sensor_type;location;lat;lon;timestamp;temperature;humidity
53268;DHT22;39156;51.176;6.738;2022-10-17T00:01:42;16.00;76.90
53268;DHT22;39156;51.176;6.738;2022-10-17T00:04:07;16.00;76.80
53268;DHT22;39156;51.176;6.738;2022-10-17T00:06:34;16.00;76.90
53268;DHT22;39156;51.176;6.738;2022-10-17T00:09:00;16.00;76.90
53268;DHT22;39156;51.176;6.738;2022-10-17T00:11:26;16.00;77.00
53268;DHT22;39156;51.176;6.738;2022-10-17T00:13:54;16.00;76.60
53268;DHT22;39156;51.176;6.738;2022-10-17T00:16:28;16.00;76.80
53268;DHT22;39156;51.176;6.738;2022-10-17T00:18:58;16.00;77.20
53268;DHT22;39156;51.176;6.738;2022-10-17T00:21:25;16.10;76.90
53268;DHT22;39156;51.176;6.738;2022-10-17T00:23:52;16.00;76.90
53268;DHT22;39156;51.176;6.738;2022-10-17T00:26:19;16.10;77.80
53268;DHT22;39156;51.176;6.738;2022-10-17T00:28:49;16.10;77.00
53268;DHT22;39156;51.176;6.738;2022-10-17T00:31:17;16.10;77.20
53268;DHT22;39156;51.176;6.738;2022-10-17T00:33:44;16.10;77.10
53268;DHT22;39156;51.176;6.738;2022-10-17T00:36:17;16.10;77.10
53268;DHT22;39156;51.176;6.738;2022-10-17T00:38:46;16.10;77.30
53268;DHT22;39156;51.176;6.738;2022-10-17T00:41:17;16.20;77.10
53268;DHT22;39156;51.176;6.738;2022-10-17T00:43:57;16.20;77.10
53268;DHT22;39156;51.176;6.738;2022-10-17T00:46:34;16.20;77.20
53268;DHT22;39156;51.176;6.738;2022-10-17T00:49:07;16.20;77.20
53268;DHT22;39156;51.176;6.738;2022-10-17T00:51:46;16.20;77.10
53268;DHT22;39156;51.176;6.738;2022-10-17T00:54:15;16.20;77.20
53268;DHT22;39156;51.176;6.738;2022-10-17T00:56:42;16.20;76.90
53268;DHT22;39156;51.176;6.738;2022-10-17T00:59:11;16.20;76.90
53268;DHT22;39156;51.176;6.738;2022-10-17T01:01:58;16.20;76.90
53268;DHT22;39156;51.176;6.738;2022-10-17T01:04:25;16.20;77.10
53268;DHT22;39156;51.176;6.738;2022-10-17T01:06:51;16.20;76.80
53268;DHT22;39156;51.176;6.738;2022-10-17T01:09:17;16.20;76.80
53268;DHT22;39156;51.176;6.738;2022-10-17T01:21:16;16.10;77.40
53268;DHT22;39156;51.176;6.738;2022-10-17T01:24:20;16.00;77.30
53268;DHT22;39156;51.176;6.738;2022-10-17T01:27:25;16.00;77.10
53268;DHT22;39156;51.176;6.738;2022-10-17T01:32:57;16.00;77.00
53268;DHT22;39156;51.176;6.738;2022-10-17T01:35:46;16.00;77.20
53268;DHT22;39156;51.176;6.738;2022-10-17T01:38:32;15.90;77.40
53268;DHT22;39156;51.176;6.738;2022-10-17T01:47:05;15.90;77.60
53268;DHT22;39156;51.176;6.738;2022-10-17T01:49:34;16.00;77.30
53268;DHT22;39156;51.176;6.738;2022-10-17T01:52:08;15.90;77.10
53268;DHT22;39156;51.176;6.738;2022-10-17T01:54:42;15.90;77.40
53268;DHT22;39156;51.176;6.738;2022-10-17T01:57:26;15.90;77.40
53268;DHT22;39156;51.176;6.738;2022-10-17T01:59:55;15.90;77.60
53268;DHT22;39156;51.176;6.738;2022-10-17T02:02:23;15.80;77.10
53268;DHT22;39156;51.176;6.738;2022-10-17T02:04:50;15.80;77.20
53268;DHT22;39156;51.176;6.738;2022-10-17T02:07:16;15.80;77.30
53268;DHT22;39156;51.176;6.738;2022-10-17T02:09:42;15.80;77.40
53268;DHT22;39156;51.176;6.738;2022-10-17T02:12:43;15.80;77.40
53268;DHT22;39156;51.176;6.738;2022-10-17T02:28:08;15.70;78.20
53268;DHT22;39156;51.176;6.738;2022-10-17T02:30:43;15.70;77.90
53268;DHT22;39156;51.176;6.738;2022-10-17T02:36:04;15.70;77.70
53268;DHT22;39156;51.176;6.738;2022-10-17T02:38:33;15.70;77.70
53268;DHT22;39156;51.176;6.738;2022-10-17T02:40:59;15.70;77.60
53268;DHT22;39156;51.176;6.738;2022-10-17T02:43:26;15.70;77.60
53268;DHT22;39156;51.176;6.738;2022-10-17T02:45:52;15.70;77.80
53268;DHT22;39156;51.176;6.738;2022-10-17T02:48:33;15.60;77.70
53268;DHT22;39156;51.176;6.738;2022-10-17T02:51:12;15.60;78.20
53268;DHT22;39156;51.176;6.738;2022-10-17T02:56:54;15.70;78.30
53268;DHT22;39156;51.176;6.738;2022-10-17T02:59:25;15.60;78.10
53268;DHT22;39156;51.176;6.738;2022-10-17T03:01:52;15.70;77.90
53268;DHT22;39156;51.176;6.738;2022-10-17T03:04:18;15.60;77.80
53268;DHT22;39156;51.176;6.738;2022-10-17T03:06:46;15.60;77.90
53268;DHT22;39156;51.176;6.738;2022-10-17T03:09:12;15.70;77.90
53268;DHT22;39156;51.176;6.738;2022-10-17T03:11:38;15.60;77.80
53268;DHT22;39156;51.176;6.738;2022-10-17T03:14:04;15.60;77.80
53268;DHT22;39156;51.176;6.738;2022-10-17T03:16:29;15.70;77.90
53268;DHT22;39156;51.176;6.738;2022-10-17T03:18:55;15.60;77.80
53268;DHT22;39156;51.176;6.738;2022-10-17T03:21:21;15.60;77.80
53268;DHT22;39156;51.176;6.738;2022-10-17T03:23:46;15.60;77.80
53268;DHT22;39156;51.176;6.738;2022-10-17T03:26:12;15.60;77.70
53268;DHT22;39156;51.176;6.738;2022-10-17T03:28:38;15.60;77.70
53268;DHT22;39156;51.176;6.738;2022-10-17T03:31:14;15.70;77.80
53268;DHT22;39156;51.176;6.738;2022-10-17T03:33:41;15.70;77.90
53268;DHT22;39156;51.176;6.738;2022-10-17T03:36:08;15.60;77.70
53268;DHT22;39156;51.176;6.738;2022-10-17T03:38:37;15.60;77.70
53268;DHT22;39156;51.176;6.738;2022-10-17T03:41:03;15.60;77.70
53268;DHT22;39156;51.176;6.738;2022-10-17T03:43:29;15.60;77.70
53268;DHT22;39156;51.176;6.738;2022-10-17T03:45:57;15.60;77.70
53268;DHT22;39156;51.176;6.738;2022-10-17T03:48:23;15.70;77.80
53268;DHT22;39156;51.176;6.738;2022-10-17T03:50:49;15.70;77.70
53268;DHT22;39156;51.176;6.738;2022-10-17T03:53:15;15.60;77.70
53268;DHT22;39156;51.176;6.738;2022-10-17T03:55:41;15.70;77.70
53268;DHT22;39156;51.176;6.738;2022-10-17T03:58:07;15.70;77.70
53268;DHT22;39156;51.176;6.738;2022-10-17T04:00:35;15.70;77.70
53268;DHT22;39156;51.176;6.738;2022-10-17T04:03:00;15.70;77.80
53268;DHT22;39156;51.176;6.738;2022-10-17T04:05:26;15.70;77.60
53268;DHT22;39156;51.176;6.738;2022-10-17T04:07:52;15.70;77.60
53268;DHT22;39156;51.176;6.738;2022-10-17T04:10:17;15.70;77.60
53268;DHT22;39156;51.176;6.738;2022-10-17T04:12:43;15.70;77.50
53268;DHT22;39156;51.176;6.738;2022-10-17T04:15:09;15.70;77.60
53268;DHT22;39156;51.176;6.738;2022-10-17T04:17:35;15.70;77.50
53268;DHT22;39156;51.176;6.738;2022-10-17T04:20:01;15.80;77.50
53268;DHT22;39156;51.176;6.738;2022-10-17T04:22:26;15.80;77.40
53268;DHT22;39156;51.176;6.738;2022-10-17T04:24:52;15.80;77.40
53268;DHT22;39156;51.176;6.738;2022-10-17T04:27:18;15.80;77.30
53268;DHT22;39156;51.176;6.738;2022-10-17T04:29:43;15.80;77.30
53268;DHT22;39156;51.176;6.738;2022-10-17T04:32:09;15.80;77.20
53268;DHT22;39156;51.176;6.738;2022-10-17T04:34:35;15.80;77.20
53268;DHT22;39156;51.176;6.738;2022-10-17T04:37:00;15.80;77.20
53268;DHT22;39156;51.176;6.738;2022-10-17T04:39:26;15.80;77.20
53268;DHT22;39156;51.176;6.738;2022-10-17T04:41:52;15.80;77.10
53268;DHT22;39156;51.176;6.738;2022-10-17T04:44:18;15.80;77.10
53268;DHT22;39156;51.176;6.738;2022-10-17T04:46:45;15.80;77.00
53268;DHT22;39156;51.176;6.738;2022-10-17T04:49:10;15.70;77.60
53268;DHT22;39156;51.176;6.738;2022-10-17T04:51:37;15.80;76.90
53268;DHT22;39156;51.176;6.738;2022-10-17T04:54:03;15.70;76.90
53268;DHT22;39156;51.176;6.738;2022-10-17T04:56:29;15.80;77.00
53268;DHT22;39156;51.176;6.738;2022-10-17T04:58:56;15.80;77.10
53268;DHT22;39156;51.176;6.738;2022-10-17T05:01:23;15.70;77.10
53268;DHT22;39156;51.176;6.738;2022-10-17T05:03:49;15.70;77.10
53268;DHT22;39156;51.176;6.738;2022-10-17T05:06:18;15.70;77.10
53268;DHT22;39156;51.176;6.738;2022-10-17T05:08:46;15.70;77.70
53268;DHT22;39156;51.176;6.738;2022-10-17T05:11:20;15.70;77.10
53268;DHT22;39156;51.176;6.738;2022-10-17T05:13:58;15.70;77.10
53268;DHT22;39156;51.176;6.738;2022-10-17T05:16:25;15.70;77.10
53268;DHT22;39156;51.176;6.738;2022-10-17T05:18:53;15.80;77.00
53268;DHT22;39156;51.176;6.738;2022-10-17T05:21:22;15.80;77.10
53268;DHT22;39156;51.176;6.738;2022-10-17T05:23:49;15.80;77.00
53268;DHT22;39156;51.176;6.738;2022-10-17T05:26:15;15.80;77.00
53268;DHT22;39156;51.176;6.738;2022-10-17T05:28:41;15.80;77.00
53268;DHT22;39156;51.176;6.738;2022-10-17T05:31:08;15.80;76.90
53268;DHT22;39156;51.176;6.738;2022-10-17T05:33:35;15.80;76.90
53268;DHT22;39156;51.176;6.738;2022-10-17T05:36:02;15.90;76.90
53268;DHT22;39156;51.176;6.738;2022-10-17T05:38:28;15.90;76.80
53268;DHT22;39156;51.176;6.738;2022-10-17T05:41:01;15.90;76.80
53268;DHT22;39156;51.176;6.738;2022-10-17T05:43:29;15.90;76.80
53268;DHT22;39156;51.176;6.738;2022-10-17T05:45:55;15.90;76.60
53268;DHT22;39156;51.176;6.738;2022-10-17T05:48:27;15.90;76.60
53268;DHT22;39156;51.176;6.738;2022-10-17T05:50:57;16.00;76.50
53268;DHT22;39156;51.176;6.738;2022-10-17T05:53:24;15.90;76.50
53268;DHT22;39156;51.176;6.738;2022-10-17T05:56:00;16.00;76.50
53268;DHT22;39156;51.176;6.738;2022-10-17T05:58:27;16.00;76.40
53268;DHT22;39156;51.176;6.738;2022-10-17T06:00:58;16.00;76.30
53268;DHT22;39156;51.176;6.738;2022-10-17T06:03:25;16.00;76.30
53268;DHT22;39156;51.176;6.738;2022-10-17T06:05:51;15.90;76.10
53268;DHT22;39156;51.176;6.738;2022-10-17T06:08:17;15.90;76.00
53268;DHT22;39156;51.176;6.738;2022-10-17T06:10:46;15.90;76.00
53268;DHT22;39156;51.176;6.738;2022-10-17T06:13:16;15.90;76.10
53268;DHT22;39156;51.176;6.738;2022-10-17T06:15:43;15.90;76.10
53268;DHT22;39156;51.176;6.738;2022-10-17T06:18:10;15.90;76.10
53268;DHT22;39156;51.176;6.738;2022-10-17T06:20:36;15.90;76.10
53268;DHT22;39156;51.176;6.738;2022-10-17T06:23:02;15.90;76.20
53268;DHT22;39156;51.176;6.738;2022-10-17T06:25:30;15.90;76.20
53268;DHT22;39156;51.176;6.738;2022-10-17T06:27:56;15.90;76.20
53268;DHT22;39156;51.176;6.738;2022-10-17T06:30:22;15.90;76.30
53268;DHT22;39156;51.176;6.738;2022-10-17T06:32:48;15.90;76.30
53268;DHT22;39156;51.176;6.738;2022-10-17T06:35:13;15.90;76.30
53268;DHT22;39156;51.176;6.738;2022-10-17T06:37:39;16.00;76.30
53268;DHT22;39156;51.176;6.738;2022-10-17T06:40:06;15.90;76.20
53268;DHT22;39156;51.176;6.738;2022-10-17T06:42:33;16.00;76.20
53268;DHT22;39156;51.176;6.738;2022-10-17T06:44:59;16.00;76.10
53268;DHT22;39156;51.176;6.738;2022-10-17T06:47:24;16.00;76.10
53268;DHT22;39156;51.176;6.738;2022-10-17T06:49:50;16.10;76.10
53268;DHT22;39156;51.176;6.738;2022-10-17T06:52:16;16.10;76.00
53268;DHT22;39156;51.176;6.738;2022-10-17T06:54:43;16.10;75.90
53268;DHT22;39156;51.176;6.738;2022-10-17T06:57:09;16.20;75.80
53268;DHT22;39156;51.176;6.738;2022-10-17T06:59:35;16.30;75.70
53268;DHT22;39156;51.176;6.738;2022-10-17T07:02:01;16.30;75.60
53268;DHT22;39156;51.176;6.738;2022-10-17T07:04:27;16.40;75.50
53268;DHT22;39156;51.176;6.738;2022-10-17T07:06:53;16.40;75.50
53268;DHT22;39156;51.176;6.738;2022-10-17T07:09:19;16.50;76.00
53268;DHT22;39156;51.176;6.738;2022-10-17T07:11:45;16.50;75.30
53268;DHT22;39156;51.176;6.738;2022-10-17T07:14:11;16.60;75.10
53268;DHT22;39156;51.176;6.738;2022-10-17T07:16:36;16.70;74.70
53268;DHT22;39156;51.176;6.738;2022-10-17T07:19:02;16.70;74.60
53268;DHT22;39156;51.176;6.738;2022-10-17T07:21:28;16.80;74.40
53268;DHT22;39156;51.176;6.738;2022-10-17T07:23:53;16.90;74.20
53268;DHT22;39156;51.176;6.738;2022-10-17T07:26:20;16.90;73.90
53268;DHT22;39156;51.176;6.738;2022-10-17T07:28:49;17.00;73.70
53268;DHT22;39156;51.176;6.738;2022-10-17T07:31:17;17.10;73.50
53268;DHT22;39156;51.176;6.738;2022-10-17T07:33:44;17.10;73.40
53268;DHT22;39156;51.176;6.738;2022-10-17T07:36:11;17.10;73.20
53268;DHT22;39156;51.176;6.738;2022-10-17T07:38:37;17.20;73.10
53268;DHT22;39156;51.176;6.738;2022-10-17T07:41:06;17.20;72.90
53268;DHT22;39156;51.176;6.738;2022-10-17T07:43:33;17.30;72.90
53268;DHT22;39156;51.176;6.738;2022-10-17T07:46:00;17.30;72.90
53268;DHT22;39156;51.176;6.738;2022-10-17T07:48:26;17.50;72.80
53268;DHT22;39156;51.176;6.738;2022-10-17T07:50:52;17.60;72.60
53268;DHT22;39156;51.176;6.738;2022-10-17T07:53:18;17.70;72.50
53268;DHT22;39156;51.176;6.738;2022-10-17T07:55:44;17.90;72.30
53268;DHT22;39156;51.176;6.738;2022-10-17T07:58:11;18.10;72.50
53268;DHT22;39156;51.176;6.738;2022-10-17T08:00:38;18.30;72.20
53268;DHT22;39156;51.176;6.738;2022-10-17T08:03:04;18.60;71.80
53268;DHT22;39156;51.176;6.738;2022-10-17T08:05:30;18.80;71.50
53268;DHT22;39156;51.176;6.738;2022-10-17T08:07:57;19.10;71.00
53268;DHT22;39156;51.176;6.738;2022-10-17T08:10:23;19.30;70.30
53268;DHT22;39156;51.176;6.738;2022-10-17T08:12:53;19.60;69.70
53268;DHT22;39156;51.176;6.738;2022-10-17T08:15:19;19.90;69.40
53268;DHT22;39156;51.176;6.738;2022-10-17T08:17:45;20.10;68.70
53268;DHT22;39156;51.176;6.738;2022-10-17T08:20:11;20.40;68.20
53268;DHT22;39156;51.176;6.738;2022-10-17T08:22:37;20.60;67.50
53268;DHT22;39156;51.176;6.738;2022-10-17T08:25:03;20.80;66.60
53268;DHT22;39156;51.176;6.738;2022-10-17T08:27:29;21.00;66.00
53268;DHT22;39156;51.176;6.738;2022-10-17T08:29:54;21.20;65.80
53268;DHT22;39156;51.176;6.738;2022-10-17T08:32:22;21.40;65.20
53268;DHT22;39156;51.176;6.738;2022-10-17T08:34:50;21.60;64.70
53268;DHT22;39156;51.176;6.738;2022-10-17T08:37:16;21.80;64.70
53268;DHT22;39156;51.176;6.738;2022-10-17T08:39:42;21.90;64.30
53268;DHT22;39156;51.176;6.738;2022-10-17T08:45:23;22.10;61.00
53268;DHT22;39156;51.176;6.738;2022-10-17T08:47:58;22.10;61.40
53268;DHT22;39156;51.176;6.738;2022-10-17T08:50:35;22.10;60.40
53268;DHT22;39156;51.176;6.738;2022-10-17T08:55:51;21.80;60.60
53268;DHT22;39156;51.176;6.738;2022-10-17T08:58:27;21.70;60.40
53268;DHT22;39156;51.176;6.738;2022-10-17T09:01:28;21.50;60.30
53268;DHT22;39156;51.176;6.738;2022-10-17T09:07:32;21.20;60.50
53268;DHT22;39156;51.176;6.738;2022-10-17T09:10:30;21.10;60.80
53268;DHT22;39156;51.176;6.738;2022-10-17T09:13:36;21.00;61.40
53268;DHT22;39156;51.176;6.738;2022-10-17T09:19:31;21.00;61.60
53268;DHT22;39156;51.176;6.738;2022-10-17T09:22:03;21.00;61.60
53268;DHT22;39156;51.176;6.738;2022-10-17T09:24:56;21.00;62.20
53268;DHT22;39156;51.176;6.738;2022-10-17T09:27:35;21.00;61.70
53268;DHT22;39156;51.176;6.738;2022-10-17T09:31:27;21.00;61.40
53268;DHT22;39156;51.176;6.738;2022-10-17T09:33:28;21.10;61.70
53268;DHT22;39156;51.176;6.738;2022-10-17T09:35:59;21.10;61.70
53268;DHT22;39156;51.176;6.738;2022-10-17T09:38:35;21.10;61.40
53268;DHT22;39156;51.176;6.738;2022-10-17T09:41:06;21.10;61.40
53268;DHT22;39156;51.176;6.738;2022-10-17T09:43:57;20.90;61.30
53268;DHT22;39156;51.176;6.738;2022-10-17T09:49:37;20.90;61.40
53268;DHT22;39156;51.176;6.738;2022-10-17T09:52:06;20.80;61.60
53268;DHT22;39156;51.176;6.738;2022-10-17T09:54:59;20.70;61.70
53268;DHT22;39156;51.176;6.738;2022-10-17T10:00:30;20.50;62.00
53268;DHT22;39156;51.176;6.738;2022-10-17T10:03:09;20.50;62.00
53268;DHT22;39156;51.176;6.738;2022-10-17T10:05:39;20.40;62.20
53268;DHT22;39156;51.176;6.738;2022-10-17T10:08:15;20.30;62.50
53268;DHT22;39156;51.176;6.738;2022-10-17T10:10:42;20.30;62.50
53268;DHT22;39156;51.176;6.738;2022-10-17T10:15:42;20.20;62.90
53268;DHT22;39156;51.176;6.738;2022-10-17T10:18:26;20.10;63.10
53268;DHT22;39156;51.176;6.738;2022-10-17T10:21:04;20.00;63.20
53268;DHT22;39156;51.176;6.738;2022-10-17T10:24:09;19.90;63.30
53268;DHT22;39156;51.176;6.738;2022-10-17T10:26:47;19.90;63.70
53268;DHT22;39156;51.176;6.738;2022-10-17T10:29:41;19.90;63.90
53268;DHT22;39156;51.176;6.738;2022-10-17T10:32:25;19.80;63.90
53268;DHT22;39156;51.176;6.738;2022-10-17T10:34:57;19.90;64.10
53268;DHT22;39156;51.176;6.738;2022-10-17T10:37:28;19.80;64.00
53268;DHT22;39156;51.176;6.738;2022-10-17T10:40:00;19.80;64.50
53268;DHT22;39156;51.176;6.738;2022-10-17T10:42:33;19.80;64.50
53268;DHT22;39156;51.176;6.738;2022-10-17T10:50:35;19.90;64.70
53268;DHT22;39156;51.176;6.738;2022-10-17T10:56:06;19.90;64.60
53268;DHT22;39156;51.176;6.738;2022-10-17T10:58:52;19.90;64.70
53268;DHT22;39156;51.176;6.738;2022-10-17T11:07:26;19.90;64.70
53268;DHT22;39156;51.176;6.738;2022-10-17T11:13:09;19.80;64.90
53268;DHT22;39156;51.176;6.738;2022-10-17T11:15:41;19.80;64.90
53268;DHT22;39156;51.176;6.738;2022-10-17T11:18:38;19.80;65.10
53268;DHT22;39156;51.176;6.738;2022-10-17T11:21:17;19.70;65.80
53268;DHT22;39156;51.176;6.738;2022-10-17T11:24:07;19.70;66.10
53268;DHT22;39156;51.176;6.738;2022-10-17T11:27:04;19.80;66.70
53268;DHT22;39156;51.176;6.738;2022-10-17T11:29:32;19.80;66.10
53268;DHT22;39156;51.176;6.738;2022-10-17T11:32:04;19.90;66.20
53268;DHT22;39156;51.176;6.738;2022-10-17T11:34:35;19.90;66.00
53268;DHT22;39156;51.176;6.738;2022-10-17T11:37:17;19.90;66.10
53268;DHT22;39156;51.176;6.738;2022-10-17T11:40:02;19.90;66.20
53268;DHT22;39156;51.176;6.738;2022-10-17T11:45:20;19.90;66.60
53268;DHT22;39156;51.176;6.738;2022-10-17T11:47:54;20.00;66.90
53268;DHT22;39156;51.176;6.738;2022-10-17T11:50:25;20.00;66.90
53268;DHT22;39156;51.176;6.738;2022-10-17T11:53:03;20.00;66.80
53268;DHT22;39156;51.176;6.738;2022-10-17T11:55:33;20.10;66.90
53268;DHT22;39156;51.176;6.738;2022-10-17T12:07:12;20.30;66.70
53268;DHT22;39156;51.176;6.738;2022-10-17T12:12:30;20.30;66.40
53268;DHT22;39156;51.176;6.738;2022-10-17T12:17:45;20.30;65.90
53268;DHT22;39156;51.176;6.738;2022-10-17T12:25:46;20.30;66.10
53268;DHT22;39156;51.176;6.738;2022-10-17T12:28:55;20.30;66.10
53268;DHT22;39156;51.176;6.738;2022-10-17T12:31:20;20.30;66.20
53268;DHT22;39156;51.176;6.738;2022-10-17T12:33:58;20.30;66.30
53268;DHT22;39156;51.176;6.738;2022-10-17T12:49:45;20.10;66.30
53268;DHT22;39156;51.176;6.738;2022-10-17T12:52:58;20.10;67.20
53268;DHT22;39156;51.176;6.738;2022-10-17T12:55:29;20.00;66.60
53268;DHT22;39156;51.176;6.738;2022-10-17T12:58:09;20.00;66.70
53268;DHT22;39156;51.176;6.738;2022-10-17T13:03:15;19.90;67.00
53268;DHT22;39156;51.176;6.738;2022-10-17T13:05:49;19.90;67.10
53268;DHT22;39156;51.176;6.738;2022-10-17T13:08:38;19.90;67.20
53268;DHT22;39156;51.176;6.738;2022-10-17T13:11:09;19.90;67.30
53268;DHT22;39156;51.176;6.738;2022-10-17T13:13:51;19.90;67.10
53268;DHT22;39156;51.176;6.738;2022-10-17T13:16:37;19.90;67.00
53268;DHT22;39156;51.176;6.738;2022-10-17T13:19:14;19.90;66.90
53268;DHT22;39156;51.176;6.738;2022-10-17T13:24:45;19.90;66.90
53268;DHT22;39156;51.176;6.738;2022-10-17T13:29:54;19.90;66.70
53268;DHT22;39156;51.176;6.738;2022-10-17T13:32:23;19.90;66.70
53268;DHT22;39156;51.176;6.738;2022-10-17T13:35:12;19.90;66.50
53268;DHT22;39156;51.176;6.738;2022-10-17T13:37:45;19.90;66.50
53268;DHT22;39156;51.176;6.738;2022-10-17T13:40:36;19.90;66.60
53268;DHT22;39156;51.176;6.738;2022-10-17T13:43:19;19.90;66.40
53268;DHT22;39156;51.176;6.738;2022-10-17T13:45:54;19.90;66.40
53268;DHT22;39156;51.176;6.738;2022-10-17T13:48:27;19.90;66.30
53268;DHT22;39156;51.176;6.738;2022-10-17T13:50:58;19.90;66.40
53268;DHT22;39156;51.176;6.738;2022-10-17T13:53:32;20.00;66.40
53268;DHT22;39156;51.176;6.738;2022-10-17T13:56:05;19.90;66.20
53268;DHT22;39156;51.176;6.738;2022-10-17T13:58:48;19.90;66.10
53268;DHT22;39156;51.176;6.738;2022-10-17T14:01:16;19.90;65.80
53268;DHT22;39156;51.176;6.738;2022-10-17T14:03:43;19.90;66.00
53268;DHT22;39156;51.176;6.738;2022-10-17T14:06:19;19.90;66.10
53268;DHT22;39156;51.176;6.738;2022-10-17T14:08:57;20.00;66.20
53268;DHT22;39156;51.176;6.738;2022-10-17T14:11:31;20.00;65.80
53268;DHT22;39156;51.176;6.738;2022-10-17T14:14:20;20.00;65.80
53268;DHT22;39156;51.176;6.738;2022-10-17T14:16:47;20.00;65.60
53268;DHT22;39156;51.176;6.738;2022-10-17T14:19:31;20.10;65.70
53268;DHT22;39156;51.176;6.738;2022-10-17T14:22:23;20.20;65.80
53268;DHT22;39156;51.176;6.738;2022-10-17T14:24:51;20.20;65.60
53268;DHT22;39156;51.176;6.738;2022-10-17T14:27:29;20.20;65.60
53268;DHT22;39156;51.176;6.738;2022-10-17T14:30:01;20.20;65.40
53268;DHT22;39156;51.176;6.738;2022-10-17T14:32:35;20.20;65.50
53268;DHT22;39156;51.176;6.738;2022-10-17T14:35:03;20.20;65.40
53268;DHT22;39156;51.176;6.738;2022-10-17T14:42:44;20.10;65.30
53268;DHT22;39156;51.176;6.738;2022-10-17T14:45:33;20.20;65.50
53268;DHT22;39156;51.176;6.738;2022-10-17T14:48:08;20.10;65.60
53268;DHT22;39156;51.176;6.738;2022-10-17T14:50:37;20.10;65.50
53268;DHT22;39156;51.176;6.738;2022-10-17T14:55:39;20.10;65.30
53268;DHT22;39156;51.176;6.738;2022-10-17T14:58:24;20.10;65.30
53268;DHT22;39156;51.176;6.738;2022-10-17T15:00:56;20.10;65.40
53268;DHT22;39156;51.176;6.738;2022-10-17T15:03:22;20.10;65.40
53268;DHT22;39156;51.176;6.738;2022-10-17T15:05:49;20.10;65.60
53268;DHT22;39156;51.176;6.738;2022-10-17T15:08:17;20.00;65.70
53268;DHT22;39156;51.176;6.738;2022-10-17T15:10:46;20.00;65.70
53268;DHT22;39156;51.176;6.738;2022-10-17T15:13:13;20.00;65.80
53268;DHT22;39156;51.176;6.738;2022-10-17T15:15:40;20.00;66.00
53268;DHT22;39156;51.176;6.738;2022-10-17T15:18:09;20.00;65.90
53268;DHT22;39156;51.176;6.738;2022-10-17T15:20:35;20.00;66.10
53268;DHT22;39156;51.176;6.738;2022-10-17T15:23:01;19.90;66.20
53268;DHT22;39156;51.176;6.738;2022-10-17T15:25:29;19.90;66.60
53268;DHT22;39156;51.176;6.738;2022-10-17T15:27:55;19.90;66.70
53268;DHT22;39156;51.176;6.738;2022-10-17T15:30:23;19.80;67.10
53268;DHT22;39156;51.176;6.738;2022-10-17T15:32:51;19.80;67.10
53268;DHT22;39156;51.176;6.738;2022-10-17T15:35:17;19.70;66.90
53268;DHT22;39156;51.176;6.738;2022-10-17T15:37:44;19.70;67.00
53268;DHT22;39156;51.176;6.738;2022-10-17T15:40:23;19.70;67.40
53268;DHT22;39156;51.176;6.738;2022-10-17T15:42:52;19.50;67.50
53268;DHT22;39156;51.176;6.738;2022-10-17T15:45:19;19.50;67.70
53268;DHT22;39156;51.176;6.738;2022-10-17T15:47:51;19.50;67.90
53268;DHT22;39156;51.176;6.738;2022-10-17T15:50:19;19.40;68.30
53268;DHT22;39156;51.176;6.738;2022-10-17T15:52:46;19.40;68.40
53268;DHT22;39156;51.176;6.738;2022-10-17T15:55:15;19.30;68.50
53268;DHT22;39156;51.176;6.738;2022-10-17T15:57:45;19.30;68.80
53268;DHT22;39156;51.176;6.738;2022-10-17T16:00:21;19.20;69.10
53268;DHT22;39156;51.176;6.738;2022-10-17T16:02:48;19.20;69.50
53268;DHT22;39156;51.176;6.738;2022-10-17T16:05:19;19.10;69.50
53268;DHT22;39156;51.176;6.738;2022-10-17T16:07:48;19.10;69.90
53268;DHT22;39156;51.176;6.738;2022-10-17T16:10:14;19.00;69.90
53268;DHT22;39156;51.176;6.738;2022-10-17T16:12:40;18.90;70.10
53268;DHT22;39156;51.176;6.738;2022-10-17T16:15:16;18.90;70.40
53268;DHT22;39156;51.176;6.738;2022-10-17T16:17:44;18.80;71.10
53268;DHT22;39156;51.176;6.738;2022-10-17T16:20:12;18.70;70.90
53268;DHT22;39156;51.176;6.738;2022-10-17T16:22:39;18.70;71.50
53268;DHT22;39156;51.176;6.738;2022-10-17T16:25:21;18.70;71.70
53268;DHT22;39156;51.176;6.738;2022-10-17T16:27:51;18.60;72.20
53268;DHT22;39156;51.176;6.738;2022-10-17T16:30:18;18.60;72.00
53268;DHT22;39156;51.176;6.738;2022-10-17T16:32:45;18.60;72.30
53268;DHT22;39156;51.176;6.738;2022-10-17T16:35:18;18.50;72.40
53268;DHT22;39156;51.176;6.738;2022-10-17T16:37:54;18.50;72.90
53268;DHT22;39156;51.176;6.738;2022-10-17T16:40:21;18.50;72.70
53268;DHT22;39156;51.176;6.738;2022-10-17T16:42:47;18.40;72.70
53268;DHT22;39156;51.176;6.738;2022-10-17T16:45:20;18.40;73.00
53268;DHT22;39156;51.176;6.738;2022-10-17T16:47:47;18.40;73.50
53268;DHT22;39156;51.176;6.738;2022-10-17T16:50:14;18.30;73.30
53268;DHT22;39156;51.176;6.738;2022-10-17T16:52:40;18.30;73.50
53268;DHT22;39156;51.176;6.738;2022-10-17T16:55:06;18.20;73.50
53268;DHT22;39156;51.176;6.738;2022-10-17T16:57:32;18.20;73.60
53268;DHT22;39156;51.176;6.738;2022-10-17T16:59:58;18.20;73.70
53268;DHT22;39156;51.176;6.738;2022-10-17T17:02:26;18.20;73.80
53268;DHT22;39156;51.176;6.738;2022-10-17T17:04:52;18.20;73.90
53268;DHT22;39156;51.176;6.738;2022-10-17T17:07:18;18.20;74.00
53268;DHT22;39156;51.176;6.738;2022-10-17T17:09:48;18.20;74.10
53268;DHT22;39156;51.176;6.738;2022-10-17T17:12:13;18.10;74.10
53268;DHT22;39156;51.176;6.738;2022-10-17T17:14:41;18.10;74.20
53268;DHT22;39156;51.176;6.738;2022-10-17T17:17:07;18.10;74.50
53268;DHT22;39156;51.176;6.738;2022-10-17T17:19:33;18.10;74.40
53268;DHT22;39156;51.176;6.738;2022-10-17T17:21:58;18.00;74.40
53268;DHT22;39156;51.176;6.738;2022-10-17T17:24:24;18.00;74.50
53268;DHT22;39156;51.176;6.738;2022-10-17T17:26:52;18.00;74.60
53268;DHT22;39156;51.176;6.738;2022-10-17T17:29:18;18.00;74.70
53268;DHT22;39156;51.176;6.738;2022-10-17T17:31:44;17.90;74.70
53268;DHT22;39156;51.176;6.738;2022-10-17T17:34:10;17.90;74.80
53268;DHT22;39156;51.176;6.738;2022-10-17T17:36:37;17.90;74.80
53268;DHT22;39156;51.176;6.738;2022-10-17T17:39:04;17.90;74.90
53268;DHT22;39156;51.176;6.738;2022-10-17T17:41:31;17.90;75.00
53268;DHT22;39156;51.176;6.738;2022-10-17T17:43:57;17.90;74.80
53268;DHT22;39156;51.176;6.738;2022-10-17T17:46:23;17.80;75.00
53268;DHT22;39156;51.176;6.738;2022-10-17T17:48:50;17.80;75.00
53268;DHT22;39156;51.176;6.738;2022-10-17T17:51:19;17.80;75.10
53268;DHT22;39156;51.176;6.738;2022-10-17T17:53:46;17.80;75.20
53268;DHT22;39156;51.176;6.738;2022-10-17T17:56:17;17.70;75.10
53268;DHT22;39156;51.176;6.738;2022-10-17T17:58:47;17.70;75.20
53268;DHT22;39156;51.176;6.738;2022-10-17T18:01:19;17.70;74.90
53268;DHT22;39156;51.176;6.738;2022-10-17T18:03:48;17.70;74.90